createdAt,value
2017-02-06T06:13:57.990Z,1.33
2017-02-06T06:15:08.247Z,1.35
2017-02-06T06:16:18.149Z,1.39
2017-02-06T06:17:28.084Z,1.33
2017-02-06T06:18:38.345Z,1.3
2017-02-06T06:19:48.114Z,1.32
2017-02-06T06:20:58.447Z,1.3
2017-02-06T06:22:08.321Z,1.33
2017-02-06T06:23:18.662Z,1.29
2017-02-06T06:24:28.984Z,1.25
2017-02-06T06:25:38.719Z,1.25
2017-02-06T06:26:48.957Z,1.2
2017-02-06T06:27:59.199Z,1.18
2017-02-06T06:29:09.706Z,1.24
2017-02-06T06:30:20.039Z,1.33
2017-02-06T06:31:30.684Z,1.3
2017-02-06T06:32:41.030Z,1.3
2017-02-06T06:33:51.263Z,1.21
2017-02-06T06:35:01.521Z,1.3
2017-02-06T06:36:11.473Z,1.2
2017-02-06T06:37:21.998Z,1.29
2017-02-06T06:38:32.261Z,1.36
2017-02-06T06:39:42.488Z,1.35
2017-02-06T06:40:52.801Z,1.24
2017-02-06T06:42:02.640Z,1.24
2017-02-06T06:43:13.173Z,1.22
2017-02-06T06:44:23.455Z,1.21
2017-02-06T06:45:33.567Z,1.25
2017-02-06T06:46:43.891Z,1.22
2017-02-06T06:47:54.178Z,1.24
2017-02-06T06:49:04.326Z,1.22
2017-02-06T06:50:14.158Z,1.25
2017-02-06T06:51:24.442Z,1.32
2017-02-06T06:52:34.379Z,1.22
2017-02-06T06:53:44.262Z,1.24
2017-02-06T06:54:54.356Z,1.25
2017-02-06T06:56:04.647Z,1.22
2017-02-06T06:57:14.099Z,1.24
2017-02-06T06:58:23.994Z,0.99
2017-02-06T06:59:34.278Z,1.04
2017-02-06T07:00:44.842Z,1.04
2017-02-06T07:01:55.123Z,1.06
2017-02-06T07:03:04.960Z,1.04
2017-02-06T07:04:14.850Z,0.99
2017-02-06T07:05:24.717Z,1.02
2017-02-06T07:06:34.842Z,1.15
2017-02-06T07:07:44.692Z,1.12
2017-02-06T07:08:54.528Z,1.14
2017-02-06T07:10:04.006Z,1.15
2017-02-06T07:11:13.894Z,1.14
2017-02-06T07:12:23.610Z,1.12
2017-02-06T07:13:33.964Z,1.17
2017-02-06T07:14:44.496Z,1.17
2017-02-06T07:15:54.749Z,1.12
2017-02-06T07:17:04.661Z,1.15
2017-02-06T07:18:14.766Z,1.11
2017-02-06T07:19:24.683Z,1
2017-02-06T07:20:35.020Z,1.04
2017-02-06T07:21:45.353Z,1.04
2017-02-06T07:22:55.598Z,1
2017-02-06T07:24:06.103Z,0.94
2017-02-06T07:25:16.377Z,1.02
2017-02-06T07:26:26.285Z,0.99
2017-02-06T07:27:36.535Z,0.96
2017-02-06T07:28:46.394Z,1
2017-02-06T07:29:56.893Z,0.85
2017-02-06T07:31:06.757Z,0.85
2017-02-06T07:32:16.243Z,0.86
2017-02-06T07:33:26.492Z,0.9
2017-02-06T07:34:36.738Z,0.81
2017-02-06T07:35:46.896Z,0.9
2017-02-06T07:36:57.161Z,0.85
2017-02-06T07:38:07.014Z,0.82
2017-02-06T07:39:17.252Z,0.82
2017-02-06T07:40:27.095Z,0.93
2017-02-06T07:41:37.625Z,0.86
2017-02-06T07:42:47.884Z,0.9
2017-02-06T07:43:57.715Z,0.9
2017-02-06T07:45:08.010Z,0.81
2017-02-06T07:46:17.851Z,0.93
2017-02-06T07:47:27.986Z,0.9
2017-02-06T07:48:37.442Z,0.93
2017-02-06T07:49:47.395Z,0.9
2017-02-06T07:50:56.831Z,0.82
2017-02-06T07:52:07.061Z,0.94
2017-02-06T07:53:16.343Z,0.86
2017-02-06T07:54:26.208Z,0.92
2017-02-06T07:55:36.515Z,0.86
2017-02-06T07:56:45.992Z,0.85
2017-02-06T07:57:56.346Z,0.84
2017-02-06T07:59:06.924Z,0.84
2017-02-06T08:00:17.177Z,0.9
2017-02-06T08:01:26.723Z,0.85
2017-02-06T08:02:36.996Z,0.88
2017-02-06T08:03:47.233Z,0.88
2017-02-06T08:04:57.893Z,0.86
2017-02-06T08:06:08.151Z,0.78
2017-02-06T08:07:18.028Z,0.78
2017-02-06T08:08:28.283Z,0.71
2017-02-06T08:09:37.721Z,0.64
2017-02-06T08:10:47.805Z,0.63
2017-02-06T08:11:57.655Z,0.63
2017-02-06T08:13:07.927Z,0.66
2017-02-06T08:14:18.252Z,0.58
2017-02-06T08:15:28.152Z,0.78
2017-02-06T08:16:38.762Z,0.72
2017-02-06T08:17:48.222Z,0.74
2017-02-06T08:18:58.479Z,0.81
2017-02-06T08:20:08.341Z,0.85
2017-02-06T08:21:18.589Z,0.85
2017-02-06T08:22:28.727Z,0.82
2017-02-06T08:23:38.711Z,0.93
2017-02-06T08:24:48.997Z,0.9
2017-02-06T08:25:59.241Z,0.92
2017-02-06T08:27:09.541Z,0.9
2017-02-06T08:28:20.086Z,0.9
2017-02-06T08:29:30.367Z,0.92
2017-02-06T08:30:40.617Z,0.85
2017-02-06T08:31:50.511Z,0.79
2017-02-06T08:33:00.386Z,0.93
2017-02-06T08:34:10.511Z,0.88
2017-02-06T08:35:20.803Z,0.97
2017-02-06T08:36:30.708Z,1.03
2017-02-06T08:37:40.541Z,1
2017-02-06T08:38:50.770Z,1
2017-02-06T08:40:01.316Z,1.12
2017-02-06T08:41:11.152Z,1.18
2017-02-06T08:42:21.005Z,1.14
2017-02-06T08:43:30.912Z,1.12
2017-02-06T08:44:40.351Z,1.22
2017-02-06T08:45:50.940Z,1.14
2017-02-06T08:47:01.191Z,1.08
2017-02-06T08:48:11.027Z,1.15
2017-02-06T08:49:20.496Z,1.2
2017-02-06T08:50:30.732Z,1.17
2017-02-06T08:51:41.161Z,1.15
2017-02-06T08:52:51.251Z,1.24
2017-02-06T08:54:01.088Z,1.12
2017-02-06T08:55:11.331Z,1.24
2017-02-06T08:56:21.191Z,1.28
2017-02-06T08:57:31.354Z,1.28
2017-02-06T08:58:41.665Z,1.29
2017-02-06T08:59:51.904Z,1.29
2017-02-06T09:01:02.170Z,1.17
2017-02-06T09:02:12.419Z,1.28
2017-02-06T09:03:22.610Z,1.17
2017-02-06T09:04:32.450Z,1.2
2017-02-06T09:05:42.336Z,1.32
2017-02-06T09:06:52.220Z,1.32
2017-02-06T09:08:01.676Z,1.28
2017-02-06T09:09:11.845Z,1.3
2017-02-06T09:10:22.132Z,1.29
2017-02-06T09:11:32.203Z,1.33
2017-02-06T09:12:42.520Z,1.35
2017-02-06T09:13:52.406Z,1.36
2017-02-06T09:15:02.958Z,1.25
2017-02-06T09:16:13.232Z,1.32
2017-02-06T09:17:23.499Z,1.32
2017-02-06T09:18:32.549Z,1.21
2017-02-06T09:19:42.821Z,1.2
2017-02-06T09:20:53.644Z,1.29
2017-02-06T09:22:03.913Z,1.25
2017-02-06T09:23:14.249Z,1.18
2017-02-06T09:24:24.188Z,1.14
2017-02-06T09:25:33.359Z,1.11
2017-02-06T09:26:43.844Z,1.12
2017-02-06T09:27:53.355Z,0.99
2017-02-06T09:29:02.797Z,1.03
2017-02-06T09:30:12.679Z,0.97
2017-02-06T09:31:22.993Z,0.97
2017-02-06T09:32:33.522Z,1
2017-02-06T09:33:43.939Z,1.06
2017-02-06T09:34:53.804Z,1
2017-02-06T09:36:03.655Z,0.97
2017-02-06T09:37:13.938Z,1.04
2017-02-06T09:38:24.684Z,1
2017-02-06T09:39:34.955Z,1.04
2017-02-06T09:40:48.490Z,1.02
2017-02-06T09:41:58.737Z,1
2017-02-06T09:43:08.347Z,1.03
2017-02-06T09:44:18.483Z,0.97
2017-02-06T09:45:28.334Z,0.88
2017-02-06T09:46:38.621Z,0.88
2017-02-06T09:47:48.481Z,0.79
2017-02-06T09:48:58.738Z,0.78
2017-02-06T09:50:09.331Z,0.79
2017-02-06T09:51:19.683Z,0.79
2017-02-06T09:52:29.996Z,0.9
2017-02-06T09:53:39.437Z,0.9
2017-02-06T09:54:49.680Z,0.97
2017-02-06T09:55:59.779Z,0.99
2017-02-06T09:57:09.360Z,1.03
2017-02-06T09:58:19.655Z,1.04
2017-02-06T09:59:29.948Z,1.03
2017-02-06T10:00:40.235Z,1.12
2017-02-06T10:01:50.801Z,1.11
2017-02-06T10:03:00.639Z,1.2
2017-02-06T10:04:10.896Z,1.18
2017-02-06T10:05:20.744Z,1.18
2017-02-06T10:06:30.607Z,1.18
2017-02-06T10:07:41.173Z,1.18
2017-02-06T10:08:51.504Z,1.18
2017-02-06T10:10:01.756Z,1.2
2017-02-06T10:11:11.595Z,1.24
2017-02-06T10:12:21.439Z,1.22
2017-02-06T10:13:31.977Z,1.21
2017-02-06T10:14:41.433Z,1.18
2017-02-06T10:15:50.891Z,1.28
2017-02-06T10:17:01.186Z,1.28
2017-02-06T10:18:11.264Z,1.2
2017-02-06T10:19:21.781Z,1.24
2017-02-06T10:20:31.809Z,1.28
2017-02-06T10:21:41.770Z,1.24
2017-02-06T10:22:55.160Z,1.38
2017-02-06T10:24:05.405Z,1.35
2017-02-06T10:25:15.937Z,1.4
2017-02-06T10:26:25.842Z,1.39
2017-02-06T10:27:35.684Z,1.4
2017-02-06T10:28:46.006Z,1.47
2017-02-06T10:29:56.035Z,1.43
2017-02-06T10:31:05.715Z,1.3
2017-02-06T10:32:15.607Z,1.22
2017-02-06T10:33:25.843Z,1.25
2017-02-06T10:34:36.218Z,1.24
2017-02-06T10:35:46.535Z,1.14
2017-02-06T10:36:57.123Z,1.14
2017-02-06T10:38:07.383Z,1.22
2017-02-06T10:39:16.813Z,1.24
2017-02-06T10:40:27.081Z,1.15
2017-02-06T10:41:37.012Z,1.14
2017-02-06T10:42:47.203Z,1.03
2017-02-06T10:43:57.516Z,1.1
2017-02-06T10:45:07.379Z,0.99
2017-02-06T10:46:17.233Z,1.02
2017-02-06T10:47:27.113Z,0.97
2017-02-06T10:48:37.661Z,1
2017-02-06T10:49:47.607Z,1.03
2017-02-06T10:50:57.477Z,1.03
2017-02-06T10:52:07.320Z,0.88
2017-02-06T10:53:17.197Z,0.85
2017-02-06T10:54:26.658Z,0.88
2017-02-06T10:55:36.919Z,0.82
2017-02-06T10:56:47.182Z,0.84
2017-02-06T10:57:57.479Z,0.81
2017-02-06T10:59:07.746Z,0.9
2017-02-06T11:00:18.194Z,0.9
2017-02-06T11:01:28.093Z,0.88
2017-02-06T11:02:38.345Z,0.88
2017-02-06T11:03:48.646Z,0.96
2017-02-06T11:04:58.618Z,0.86
2017-02-06T11:06:09.183Z,0.96
2017-02-06T11:07:19.528Z,0.92
2017-02-06T11:08:29.781Z,0.79
2017-02-06T11:09:39.667Z,0.88
2017-02-06T11:10:49.981Z,0.88
2017-02-06T11:12:00.146Z,0.94
2017-02-06T11:13:10.023Z,0.9
2017-02-06T11:14:20.284Z,0.88
2017-02-06T11:15:30.580Z,0.96
2017-02-06T11:16:40.489Z,1.02
2017-02-06T11:17:51.035Z,1.04
2017-02-06T11:19:01.320Z,1.06
2017-02-06T11:20:11.610Z,1.06
2017-02-06T11:21:21.517Z,1.03
2017-02-06T11:22:31.870Z,1.02
2017-02-06T11:23:42.050Z,0.85
2017-02-06T11:24:52.300Z,0.94
2017-02-06T11:26:02.591Z,0.86
2017-02-06T11:27:12.860Z,0.9
2017-02-06T11:28:22.748Z,1
2017-02-06T11:29:33.299Z,0.97
2017-02-06T11:30:42.757Z,1.04
2017-02-06T11:31:52.766Z,1.02
2017-02-06T11:33:03.041Z,0.94
2017-02-06T11:34:13.352Z,0.97
2017-02-06T11:35:23.918Z,0.93
2017-02-06T11:36:33.419Z,0.85
2017-02-06T11:37:43.276Z,0.9
2017-02-06T11:38:53.551Z,0.92
2017-02-06T11:40:03.446Z,0.88
2017-02-06T11:41:14.005Z,0.81
2017-02-06T11:42:24.311Z,0.78
2017-02-06T11:43:34.568Z,0.68
2017-02-06T11:44:44.854Z,0.79
2017-02-06T11:45:54.805Z,0.76
2017-02-06T11:47:05.034Z,0.75
2017-02-06T11:48:15.342Z,0.66
2017-02-06T11:49:25.211Z,0.72
2017-02-06T11:50:35.061Z,0.6
2017-02-06T11:51:45.333Z,0.75
2017-02-06T11:52:55.936Z,0.61
2017-02-06T11:54:05.810Z,0.74
2017-02-06T11:55:16.103Z,0.72
2017-02-06T11:56:26.358Z,0.78
2017-02-06T11:57:36.758Z,0.72
2017-02-06T11:58:47.413Z,0.79
2017-02-06T11:59:57.669Z,0.68
2017-02-06T12:01:07.935Z,0.66
2017-02-06T12:02:17.791Z,0.71
2017-02-06T12:03:27.702Z,0.81
2017-02-06T12:04:38.276Z,0.78
2017-02-06T12:05:48.192Z,0.78
2017-02-06T12:06:58.502Z,0.79
2017-02-06T12:08:08.881Z,0.67
2017-02-06T12:09:18.365Z,0.72
2017-02-06T12:10:29.031Z,0.71
2017-02-06T12:11:39.319Z,0.68
2017-02-06T12:12:49.594Z,0.82
2017-02-06T12:13:59.868Z,0.78
2017-02-06T12:15:09.753Z,0.82
2017-02-06T12:16:20.265Z,0.78
2017-02-06T12:17:30.579Z,0.85
2017-02-06T12:18:40.515Z,0.78
2017-02-06T12:19:50.787Z,0.85
2017-02-06T12:21:01.061Z,0.74
2017-02-06T12:22:11.755Z,0.74
2017-02-06T12:23:22.017Z,0.78
2017-02-06T12:24:31.897Z,0.79
2017-02-06T12:25:41.820Z,0.82
2017-02-06T12:26:52.171Z,0.74
2017-02-06T12:28:02.759Z,0.71
2017-02-06T12:29:12.654Z,0.71
2017-02-06T12:30:22.504Z,0.66
2017-02-06T12:31:32.786Z,0.63
2017-02-06T12:32:43.102Z,0.72
2017-02-06T12:33:53.709Z,0.68
2017-02-06T12:35:04.031Z,0.81
2017-02-06T12:36:13.880Z,0.76
2017-02-06T12:37:24.199Z,0.85
2017-02-06T12:38:34.515Z,0.82
2017-02-06T12:39:45.083Z,0.79
2017-02-06T12:40:55.359Z,0.81
2017-02-06T12:42:05.632Z,0.82
2017-02-06T12:43:15.611Z,0.71
2017-02-06T12:44:25.068Z,0.75
2017-02-06T12:45:35.184Z,0.68
2017-02-06T12:46:45.464Z,0.74
2017-02-06T12:47:55.822Z,0.76
2017-02-06T12:49:05.694Z,0.76
2017-02-06T12:50:16.215Z,0.68
2017-02-06T12:51:26.747Z,0.81
2017-02-06T12:52:36.897Z,0.82
2017-02-06T12:53:47.212Z,0.82
2017-02-06T12:54:57.110Z,0.88
2017-02-06T12:56:07.401Z,0.9
2017-02-06T12:57:18.026Z,0.93
2017-02-06T12:58:28.324Z,0.78
2017-02-06T12:59:37.395Z,0.71
2017-02-06T13:00:47.698Z,0.78
2017-02-06T13:01:57.574Z,0.74
2017-02-06T13:03:08.146Z,0.6
2017-02-06T13:04:18.012Z,0.54
2017-02-06T13:05:28.384Z,0.49
2017-02-06T13:06:38.655Z,0.48
2017-02-06T13:07:48.969Z,0.45
2017-02-06T13:08:59.593Z,0.45
2017-02-06T13:10:09.918Z,0.43
2017-02-06T13:11:19.892Z,0.28
2017-02-06T13:12:30.266Z,0.38
2017-02-06T13:13:40.145Z,0.33
2017-02-06T13:14:50.851Z,0.35
2017-02-06T13:16:01.109Z,0.28
2017-02-06T13:17:11.415Z,0.28
2017-02-06T13:18:21.688Z,0.35
2017-02-06T13:19:31.588Z,0.3
2017-02-06T13:20:42.325Z,0.28
2017-02-06T13:21:52.657Z,0.33
2017-02-06T13:23:03.029Z,0.28
2017-02-06T13:24:13.326Z,0.28
2017-02-06T13:25:23.213Z,0.3
2017-02-06T13:26:33.793Z,0.35
2017-02-06T13:27:43.240Z,0.25
2017-02-06T13:28:53.539Z,0.25
2017-02-06T13:30:03.823Z,0.3
2017-02-06T13:31:14.213Z,0.31
2017-02-06T13:32:23.623Z,0.31
2017-02-06T13:33:33.913Z,0.28
2017-02-06T13:34:44.180Z,0.21
2017-02-06T13:35:54.099Z,0.24
2017-02-06T13:37:03.940Z,0.14
2017-02-06T13:38:14.129Z,0.09
2017-02-06T13:39:24.416Z,0.09
2017-02-06T13:40:34.756Z,0.17
2017-02-06T13:41:45.018Z,0.16
2017-02-06T13:42:54.968Z,0.17
2017-02-06T13:44:05.175Z,0.17
2017-02-06T13:45:15.488Z,0.06
2017-02-06T13:46:25.757Z,0.12
2017-02-06T13:47:35.286Z,0.06
2017-02-06T13:48:45.619Z,0.01
2017-02-06T13:49:56.193Z,0.05
2017-02-06T13:51:06.526Z,0.05
2017-02-06T13:52:16.794Z,0.05
2017-02-06T13:53:27.107Z,-0.01
2017-02-06T13:54:36.986Z,0.03
2017-02-06T13:55:47.550Z,-0.04
2017-02-06T13:56:57.420Z,0.05
2017-02-06T13:58:07.283Z,0.05
2017-02-06T13:59:17.586Z,-0.04
2017-02-06T14:00:27.841Z,-0.04
2017-02-06T14:01:38.451Z,-0.15
2017-02-06T14:02:48.723Z,-0.12
2017-02-06T14:03:59.051Z,-0.09
2017-02-06T14:05:08.917Z,-0.06
2017-02-06T14:06:18.861Z,-0.06
2017-02-06T14:07:29.375Z,-0.04
2017-02-06T14:08:39.691Z,-0.06
2017-02-06T14:09:49.191Z,-0.02
2017-02-06T14:10:59.070Z,-0.06
2017-02-06T14:12:09.367Z,-0.04
2017-02-06T14:13:20.188Z,-0.06
2017-02-06T14:14:30.459Z,-0.09
2017-02-06T14:15:40.334Z,-0.16
2017-02-06T14:16:50.211Z,-0.1
2017-02-06T14:18:00.510Z,-0.16
2017-02-06T14:19:11.100Z,-0.16
2017-02-06T14:20:21.536Z,-0.2
2017-02-06T14:21:31.805Z,-0.27
2017-02-06T14:22:41.699Z,-0.28
2017-02-06T14:23:52.179Z,-0.31
2017-02-06T14:25:02.744Z,-0.3
2017-02-06T14:26:12.766Z,-0.3
2017-02-06T14:27:22.222Z,-0.27
2017-02-06T14:28:32.700Z,-0.27
2017-02-06T14:29:42.957Z,-0.22
2017-02-06T14:30:53.634Z,-0.33
2017-02-06T14:32:03.926Z,-0.28
2017-02-06T14:33:14.277Z,-0.27
2017-02-06T14:34:24.574Z,-0.34
2017-02-06T14:35:34.023Z,-0.3
2017-02-06T14:36:44.173Z,-0.35
2017-02-06T14:37:54.139Z,-0.38
2017-02-06T14:39:04.464Z,-0.28
2017-02-06T14:40:14.775Z,-0.33
2017-02-06T14:41:25.085Z,-0.3
2017-02-06T14:42:35.630Z,-0.34
2017-02-06T14:43:45.969Z,-0.45
2017-02-06T14:44:56.551Z,-0.49
2017-02-06T14:46:06.491Z,-0.48
2017-02-06T14:47:16.451Z,-0.43
2017-02-06T14:48:27.041Z,-0.34
2017-02-06T14:49:37.387Z,-0.34
2017-02-06T14:50:47.719Z,-0.45
2017-02-06T14:51:58.027Z,-0.43
2017-02-06T14:53:07.898Z,-0.46
2017-02-06T14:54:18.446Z,-0.46
2017-02-06T14:55:28.349Z,-0.49
2017-02-06T14:56:38.217Z,-0.58
2017-02-06T14:57:48.076Z,-0.59
2017-02-06T15:00:07.602Z,-0.64
2017-02-06T15:01:17.506Z,-0.7
2017-02-06T15:02:27.353Z,-0.74
2017-02-06T15:03:37.746Z,-0.88
2017-02-06T15:04:48.034Z,-0.81
2017-02-06T15:05:58.615Z,-0.77
2017-02-06T15:07:08.505Z,-0.71
2017-02-06T15:08:18.909Z,-0.71
2017-02-06T15:09:29.190Z,-0.66
2017-02-06T15:10:39.669Z,-0.69
2017-02-06T15:11:50.321Z,-0.6
2017-02-06T15:13:00.631Z,-0.59
2017-02-06T15:14:10.969Z,-0.64
2017-02-06T15:15:21.268Z,-0.58
2017-02-06T15:16:31.141Z,-0.64
2017-02-06T15:17:41.736Z,-0.67
2017-02-06T15:18:52.173Z,-0.64
2017-02-06T15:20:02.076Z,-0.55
2017-02-06T15:21:11.596Z,-0.51
2017-02-06T15:22:21.928Z,-0.6
2017-02-06T15:23:32.466Z,-0.59
2017-02-06T15:24:42.764Z,-0.6
2017-02-06T15:25:52.685Z,-0.59
2017-02-06T15:27:02.972Z,-0.6
2017-02-06T15:28:12.859Z,-0.58
2017-02-06T15:29:23.391Z,-0.66
2017-02-06T15:30:33.676Z,-0.64
2017-02-06T15:31:43.578Z,-0.69
2017-02-06T15:32:53.538Z,-0.73
2017-02-06T15:34:03.407Z,-0.63
2017-02-06T15:35:13.931Z,-0.63
2017-02-06T15:36:24.213Z,-0.6
2017-02-06T15:37:34.075Z,-0.67
2017-02-06T15:38:44.347Z,-0.77
2017-02-06T15:39:53.819Z,-0.84
2017-02-06T15:41:04.454Z,-0.89
2017-02-06T15:42:14.375Z,-0.89
2017-02-06T15:43:24.770Z,-0.89
2017-02-06T15:44:34.875Z,-0.92
2017-02-06T15:45:45.151Z,-0.94
2017-02-06T15:46:55.714Z,-1.02
2017-02-06T15:48:05.785Z,-0.91
2017-02-06T15:49:16.079Z,-0.84
2017-02-06T15:50:26.345Z,-0.94
2017-02-06T15:51:36.611Z,-0.89
2017-02-06T15:52:47.333Z,-0.92
2017-02-06T15:53:57.641Z,-0.92
2017-02-06T15:55:08.154Z,-0.91
2017-02-06T15:56:18.483Z,-0.94
2017-02-06T15:57:28.354Z,-0.92
2017-02-06T15:58:38.895Z,-0.88
2017-02-06T15:59:48.788Z,-0.92
2017-02-06T16:00:58.624Z,-0.88
2017-02-06T16:02:08.472Z,-0.94
2017-02-06T16:03:18.007Z,-0.89
2017-02-06T16:04:28.734Z,-0.91
2017-02-06T16:05:38.616Z,-0.91
2017-02-06T16:06:48.954Z,-0.91
2017-02-06T16:07:59.277Z,-0.92
2017-02-06T16:09:09.597Z,-0.88
2017-02-06T16:10:19.686Z,-0.84
2017-02-06T16:11:29.570Z,-0.88
2017-02-06T16:12:39.566Z,-0.92
2017-02-06T16:13:50.125Z,-0.92
2017-02-06T16:15:00.447Z,-0.84
2017-02-06T16:16:11.065Z,-0.87
2017-02-06T16:17:21.317Z,-0.87
2017-02-06T16:18:31.652Z,-0.89
2017-02-06T16:19:41.598Z,-0.84
2017-02-06T16:20:51.893Z,-0.88
2017-02-06T16:22:02.530Z,-0.89
2017-02-06T16:23:12.814Z,-0.92
2017-02-06T16:24:22.702Z,-0.88
2017-02-06T16:25:32.984Z,-0.96
2017-02-06T16:26:43.273Z,-0.92
2017-02-06T16:27:53.414Z,-0.88
2017-02-06T16:29:03.706Z,-0.96
2017-02-06T16:30:13.983Z,-0.92
2017-02-06T16:31:23.929Z,-1.02
2017-02-06T16:32:34.287Z,-0.98
2017-02-06T16:33:44.857Z,-0.88
2017-02-06T16:34:55.134Z,-1
2017-02-06T16:36:05.391Z,-0.94
2017-02-06T16:37:15.281Z,-0.92
2017-02-06T16:38:25.605Z,-0.92
2017-02-06T16:39:35.508Z,-0.96
2017-02-06T16:40:45.129Z,-0.85
2017-02-06T16:41:55.452Z,-0.88
2017-02-06T16:43:05.788Z,-0.98
2017-02-06T16:44:15.741Z,-1.02
2017-02-06T16:45:26.346Z,-1.03
2017-02-06T16:46:36.640Z,-0.89
2017-02-06T16:47:46.552Z,-0.98
2017-02-06T16:48:56.965Z,-1.05
2017-02-06T16:50:07.279Z,-0.88
2017-02-06T16:51:17.418Z,-0.96
2017-02-06T16:52:27.744Z,-1.07
2017-02-06T16:53:37.604Z,-1.03
2017-02-06T16:54:47.541Z,-1.09
2017-02-06T16:55:57.936Z,-1.13
2017-02-06T16:57:08.555Z,-1.16
2017-02-06T16:58:18.914Z,-1
2017-02-06T16:59:28.377Z,-1.06
2017-02-06T17:00:38.702Z,-1.06
2017-02-06T17:01:48.983Z,-1.06
2017-02-06T17:02:59.092Z,-1.06
2017-02-06T17:04:09.427Z,-1.06
2017-02-06T17:05:19.681Z,-1.06
2017-02-06T17:06:29.955Z,-0.98
2017-02-06T17:07:39.872Z,-1.06
2017-02-06T17:08:50.407Z,-1.12
2017-02-06T17:10:00.672Z,-1.14
2017-02-06T17:11:10.952Z,-1.14
2017-02-06T17:12:21.275Z,-1.2
2017-02-06T17:13:31.555Z,-1.23
2017-02-06T17:14:42.138Z,-1.28
2017-02-06T17:15:52.393Z,-1.4
2017-02-06T17:17:02.425Z,-1.49
2017-02-06T17:18:12.717Z,-1.46
2017-02-06T17:19:22.586Z,-1.58
2017-02-06T17:20:33.231Z,-1.62
2017-02-06T17:21:43.503Z,-1.6
2017-02-06T17:22:53.411Z,-1.62
2017-02-06T17:24:03.270Z,-1.58
2017-02-06T17:25:13.630Z,-1.65
2017-02-06T17:26:23.813Z,-1.71
2017-02-06T17:27:34.105Z,-1.75
2017-02-06T17:28:43.970Z,-1.7
2017-02-06T17:29:53.856Z,-1.71
2017-02-06T17:31:03.795Z,-1.68
2017-02-06T17:32:14.338Z,-1.61
2017-02-06T17:33:24.359Z,-1.5
2017-02-06T17:34:34.700Z,-1.44
2017-02-06T17:35:44.608Z,-1.49
2017-02-06T17:36:54.546Z,-1.44
2017-02-06T17:38:05.120Z,-1.46
2017-02-06T17:39:15.104Z,-1.53
2017-02-06T17:40:24.691Z,-1.57
2017-02-06T17:41:35.008Z,-1.64
2017-02-06T17:42:44.473Z,-1.68
2017-02-06T17:43:55.060Z,-1.8
2017-02-06T17:45:05.359Z,-1.79
2017-02-06T17:46:15.654Z,-1.79
2017-02-06T17:47:25.938Z,-1.71
2017-02-06T17:48:36.389Z,-1.75
2017-02-06T17:49:47.023Z,-1.72
2017-02-06T17:50:56.910Z,-1.76
2017-02-06T17:52:07.294Z,-1.71
2017-02-06T17:53:17.614Z,-1.8
2017-02-06T17:54:27.921Z,-1.82
2017-02-06T17:55:38.068Z,-1.88
2017-02-06T17:56:48.374Z,-1.85
2017-02-06T17:57:58.339Z,-1.85
2017-02-06T17:59:08.295Z,-1.79
2017-02-06T18:00:18.625Z,-1.78
2017-02-06T18:01:29.455Z,-1.82
2017-02-06T18:02:39.345Z,-1.79
2017-02-06T18:03:49.695Z,-1.78
2017-02-06T18:05:00.087Z,-1.65
2017-02-06T18:06:09.983Z,-1.61
2017-02-06T18:07:20.511Z,-1.57
2017-02-06T18:08:30.869Z,-1.46
2017-02-06T18:09:41.215Z,-1.46
2017-02-06T18:10:51.625Z,-1.54
2017-02-06T18:12:02.165Z,-1.49
2017-02-06T18:13:12.730Z,-1.6
2017-02-06T18:14:23.006Z,-1.52
2017-02-06T18:15:33.315Z,-1.44
2017-02-06T18:16:43.687Z,-1.4
2017-02-06T18:17:54.039Z,-1.39
2017-02-06T18:19:04.168Z,-1.42
2017-02-06T18:20:13.628Z,-1.21
2017-02-06T18:21:23.954Z,-1.21
2017-02-06T18:22:34.262Z,-1.21
2017-02-06T18:23:44.199Z,-1.16
2017-02-06T18:24:54.761Z,-1.26
2017-02-06T18:26:05.062Z,-1.18
2017-02-06T18:27:15.339Z,-1.2
2017-02-06T18:28:25.435Z,-1.26
2017-02-06T18:29:35.685Z,-1.14
2017-02-06T18:30:45.429Z,-1.2
2017-02-06T18:31:55.371Z,-1.16
2017-02-06T18:33:11.188Z,-1.1
2017-02-06T18:34:26.846Z,-1.16
2017-02-06T18:35:40.833Z,-1.09
2017-02-06T18:36:55.310Z,-1.14
2017-02-06T18:38:12.220Z,-1.13
2017-02-06T18:39:26.026Z,-1.12
2017-02-06T18:40:40.835Z,-1.12
2017-02-06T18:41:53.071Z,-1.09
2017-02-06T18:43:06.237Z,-1.07
2017-02-06T18:44:20.209Z,-1.06
2017-02-06T18:45:33.318Z,-1.1
2017-02-06T18:46:47.580Z,-1.09
2017-02-06T18:48:03.565Z,-1.1
2017-02-06T18:49:18.011Z,-1.14
2017-02-06T18:50:28.310Z,-1.12
2017-02-06T18:51:38.594Z,-1.07
2017-02-06T18:52:48.966Z,-1.09
2017-02-06T18:53:59.254Z,-1.12
2017-02-06T18:55:09.790Z,-1.09
2017-02-06T18:56:20.100Z,-1.06
2017-02-06T18:57:30.397Z,-1.06
2017-02-06T18:58:39.961Z,-1.13
2017-02-06T18:59:49.907Z,-1.2
2017-02-06T19:01:00.119Z,-1.29
2017-02-06T19:02:10.496Z,-1.23
2017-02-06T19:03:20.877Z,-1.26
2017-02-06T19:04:31.299Z,-1.21
2017-02-06T19:05:41.644Z,-1.23
2017-02-06T19:06:51.908Z,-1.28
2017-02-06T19:08:02.245Z,-1.31
2017-02-06T19:09:12.133Z,-1.42
2017-02-06T19:10:22.498Z,-1.43
2017-02-06T19:11:32.860Z,-1.44
2017-02-06T19:12:43.421Z,-1.53
2017-02-06T19:13:53.995Z,-1.62
2017-02-06T19:15:04.497Z,-1.57
2017-02-06T19:16:14.779Z,-1.7
2017-02-06T19:17:24.669Z,-1.64
2017-02-06T19:18:35.274Z,-1.71
2017-02-06T19:19:45.774Z,-1.65
2017-02-06T19:20:56.100Z,-1.75
2017-02-06T19:22:05.601Z,-1.72
2017-02-06T19:23:15.556Z,-1.86
2017-02-06T19:24:26.150Z,-1.8
2017-02-06T19:25:36.477Z,-1.88
2017-02-06T19:26:46.758Z,-1.85
2017-02-06T19:27:57.659Z,-1.85
2017-02-06T19:29:07.962Z,-1.89
2017-02-06T19:30:18.130Z,-1.8
2017-02-06T19:31:28.462Z,-1.82
2017-02-06T19:32:38.532Z,-1.71
2017-02-06T19:33:48.861Z,-1.67
2017-02-06T19:34:58.310Z,-1.53
2017-02-06T19:36:08.859Z,-1.54
2017-02-06T19:37:18.764Z,-1.52
2017-02-06T19:38:29.036Z,-1.47
2017-02-06T19:39:39.167Z,-1.5
2017-02-06T19:40:49.510Z,-1.47
2017-02-06T19:42:00.099Z,-1.53
2017-02-06T19:43:10.508Z,-1.4
2017-02-06T19:44:20.794Z,-1.39
2017-02-06T19:45:30.779Z,-1.36
2017-02-06T19:46:41.067Z,-1.36
2017-02-06T19:47:51.651Z,-1.44
2017-02-06T19:49:02.017Z,-1.44
2017-02-06T19:50:12.325Z,-1.43
2017-02-06T19:51:22.616Z,-1.5
2017-02-06T19:52:32.923Z,-1.6
2017-02-06T19:53:43.178Z,-1.61
2017-02-06T19:54:53.832Z,-1.64
2017-02-06T19:56:04.207Z,-1.54
2017-02-06T19:57:14.168Z,-1.6
2017-02-06T19:58:24.553Z,-1.6
2017-02-06T19:59:34.782Z,-1.54
2017-02-06T20:00:45.098Z,-1.6
2017-02-06T20:01:54.993Z,-1.62
2017-02-06T20:03:05.322Z,-1.65
2017-02-06T20:04:15.693Z,-1.53
2017-02-06T20:05:26.334Z,-1.61
2017-02-06T20:06:36.771Z,-1.47
2017-02-06T20:07:46.762Z,-1.5
2017-02-06T20:08:56.656Z,-1.47
2017-02-06T20:10:06.569Z,-1.49
2017-02-06T20:11:17.113Z,-1.43
2017-02-06T20:12:27.429Z,-1.44
2017-02-06T20:13:37.748Z,-1.31
2017-02-06T20:14:47.290Z,-1.25
2017-02-06T20:15:57.631Z,-1.4
2017-02-06T20:17:08.188Z,-1.4
2017-02-06T20:18:18.535Z,-1.58
2017-02-06T20:19:28.477Z,-1.64
2017-02-06T20:20:38.430Z,-1.65
2017-02-06T20:21:48.315Z,-1.64
2017-02-06T20:22:58.453Z,-1.54
2017-02-06T20:24:08.746Z,-1.49
2017-02-06T20:25:19.032Z,-1.44
2017-02-06T20:26:29.438Z,-1.42
2017-02-06T20:27:39.795Z,-1.29
2017-02-06T20:28:50.248Z,-1.28
2017-02-06T20:30:00.227Z,-1.23
2017-02-06T20:31:10.526Z,-1.2
2017-02-06T20:32:20.848Z,-1.21
2017-02-06T20:34:02.817Z,-1.26
2017-02-06T20:35:12.720Z,-1.25
2017-02-06T20:36:22.605Z,-1.21
2017-02-06T20:37:32.912Z,-1.23
2017-02-06T20:38:43.263Z,-1.23
2017-02-06T20:39:53.420Z,-1.2
2017-02-06T20:41:03.818Z,-1.28
2017-02-06T20:42:14.176Z,-1.29
2017-02-06T20:43:24.672Z,-1.33
2017-02-06T20:44:34.562Z,-1.44
2017-02-06T20:45:44.698Z,-1.43
2017-02-06T20:46:54.624Z,-1.44
2017-02-06T20:48:04.967Z,-1.35
2017-02-06T20:49:14.437Z,-1.32
2017-02-06T20:50:56.804Z,-1.26
2017-02-06T20:52:07.124Z,-1.28
2017-02-06T20:53:17.429Z,-1.31
2017-02-06T20:54:27.787Z,-1.23
2017-02-06T20:55:38.181Z,-1.29
2017-02-06T20:56:47.913Z,-1.29
2017-02-06T20:57:57.807Z,-1.23
2017-02-06T20:59:07.816Z,-1.26
2017-02-06T21:00:17.653Z,-1.25
2017-02-06T21:01:28.004Z,-1.13
2017-02-06T21:02:37.771Z,-1.23
2017-02-06T21:03:48.064Z,-1.16
2017-02-06T21:04:58.044Z,-1.16
2017-02-06T21:06:07.509Z,-1.1
2017-02-06T21:07:16.967Z,-1.07
2017-02-06T21:08:27.478Z,-1.07
2017-02-06T21:09:37.434Z,-1.07
2017-02-06T21:10:47.753Z,-1.07
2017-02-06T21:11:57.637Z,-1.12
2017-02-06T21:13:07.992Z,-1.14
2017-02-06T21:14:18.129Z,-1.14
2017-02-06T21:15:28.052Z,-1.12
2017-02-06T21:16:38.367Z,-1.1
2017-02-06T21:17:47.849Z,-1.07
2017-02-06T21:18:58.135Z,-1.23
2017-02-06T21:20:08.647Z,-1.25
2017-02-06T21:21:18.600Z,-1.26
2017-02-06T21:22:28.462Z,-1.25
2017-02-06T21:23:38.790Z,-1.1
2017-02-06T21:24:49.064Z,-1.23
2017-02-06T21:25:59.228Z,-1.16
2017-02-06T21:27:09.555Z,-1.23
2017-02-06T21:28:19.906Z,-1.07
2017-02-06T21:29:30.354Z,-1.13
2017-02-06T21:30:40.648Z,-1.16
2017-02-06T21:31:50.772Z,-1.06
2017-02-06T21:33:00.641Z,-1.07
2017-02-06T21:34:11.006Z,-1.1
2017-02-06T21:35:21.308Z,-1.06
2017-02-06T21:36:30.767Z,-1.1
2017-02-06T21:37:40.935Z,-0.96
2017-02-06T21:38:50.838Z,-1
2017-02-06T21:40:24.560Z,-0.92